Weather at Paphos Airport Military Heliport

Public forecast

Using degrees Celsius for public forecast. Weather courtesy of forecast.io.

Closest aviation weather report (METAR) to Paphos Airport Military Heliport

Closest report is Tain Range, 42.4 nm (78.6 km) NE.

(retrieved 0 seconds ago)

Closest aviation forecast (TAF) to Paphos Airport Military Heliport

Forecast is more than 12 hours old.

Closest forecast is São Tomé International Airport, 505.7 nm (936.6 km) ENE.

2024/06/20 12:00 (retrieved 1 day ago)

TAF FPST 201000Z 2012/2118 17016KT 9999 SCT017 BKN033 BECMG 2015/2019 BKN040